Time;durP1;ratioP1;P1;durP2;ratioP2;P2;SDS_P1;SDS_P2;PMS_P1;PMS_P2;Temp;Humidity;BMP_temperature;BMP_pressure;BME280_temperature;BME280_humidity;BME280_pressure;Samples;Min_cycle;Max_cycle;Signal;HPM_P1;HPM_P2
2023/03/28 00:00:58;;;;;;;6.38;1.98;;;;;;;;;;4958380;28;95087;-81
2023/03/28 00:03:26;;;;;;;4.70;1.52;;;;;;;;;;4958691;28;92844;-81
2023/03/28 00:05:54;;;;;;;;;;;;;;;;;;4959820;28;92541;-80
2023/03/28 00:08:20;;;;;;;4.05;1.60;;;;;;;;;;5007839;28;117347;-81
2023/03/28 00:10:47;;;;;;;4.55;1.67;;;;;;;;;;4994735;28;92093;-81
2023/03/28 00:13:14;;;;;;;4.32;1.55;;;;;;;;;;4979800;28;92422;-82
2023/03/28 00:15:41;;;;;;;5.28;1.70;;;;;;;;;;4977923;28;93311;-81
2023/03/28 00:18:10;;;;;;;4.03;1.50;;;;;;;;;;4981134;28;91376;-81
2023/03/28 00:20:37;;;;;;;5.72;1.63;;;;;;;;;;4961373;28;95002;-81
2023/03/28 00:23:04;;;;;;;4.20;1.65;;;;;;;;;;4986916;28;92680;-81
2023/03/28 00:25:34;;;;;;;6.18;1.92;;;;;;;;;;4976497;28;95812;-80
2023/03/28 00:28:02;;;;;;;7.47;1.42;;;;;;;;;;4977920;28;92734;-79
2023/03/28 00:30:28;;;;;;;5.90;1.90;;;;;;;;;;4994616;28;92543;-79
2023/03/28 00:32:56;;;;;;;6.40;1.80;;;;;;;;;;4977709;28;95380;-79
2023/03/28 00:35:23;;;;;;;6.38;1.90;;;;;;;;;;4979147;28;93591;-79
2023/03/28 00:37:51;;;;;;;10.13;1.60;;;;;;;;;;4978473;28;92100;-79
2023/03/28 00:40:17;;;;;;;6.68;1.35;;;;;;;;;;4980410;28;92796;-79
2023/03/28 00:42:44;;;;;;;5.75;2.00;;;;;;;;;;5011269;28;91843;-78
2023/03/28 00:45:11;;;;;;;7.85;1.50;;;;;;;;;;4994373;28;92362;-78
2023/03/28 00:48:04;;;;;;;4.15;1.42;;;;;;;;;;4977758;28;95492;-78
2023/03/28 00:50:35;;;;;;;5.97;1.50;;;;;;;;;;4972671;28;96636;-79
2023/03/28 00:53:12;;;;;;;5.65;1.48;;;;;;;;;;4994713;28;94720;-80
2023/03/28 00:55:56;;;;;;;9.63;1.65;;;;;;;;;;4993973;28;92999;-81
2023/03/28 00:58:25;;;;;;;7.60;1.85;;;;;;;;;;4993653;28;92382;-81
2023/03/28 01:00:53;;;;;;;8.45;1.88;;;;;;;;;;4981928;28;92349;-81
2023/03/28 01:03:24;;;;;;;5.90;1.40;;;;;;;;;;4977672;28;92341;-81
2023/03/28 01:05:51;;;;;;;5.88;1.63;;;;;;;;;;4983142;28;94522;-82
2023/03/28 01:08:19;;;;;;;9.65;1.63;;;;;;;;;;4978980;28;91891;-82
2023/03/28 01:10:46;;;;;;;16.52;2.42;;;;;;;;;;4977653;28;92395;-81
2023/03/28 01:13:14;;;;;;;5.00;1.40;;;;;;;;;;4977968;28;95398;-80
2023/03/28 01:15:41;;;;;;;10.60;2.08;;;;;;;;;;4976047;28;97774;-80
2023/03/28 01:18:10;;;;;;;8.55;1.55;;;;;;;;;;4976391;28;92834;-80
2023/03/28 01:20:45;;;;;;;4.15;1.30;;;;;;;;;;4968996;28;95034;-79
2023/03/28 01:23:13;;;;;;;8.00;1.70;;;;;;;;;;4996496;28;94876;-80
2023/03/28 01:25:39;;;;;;;8.23;2.20;;;;;;;;;;5009938;28;95137;-80
2023/03/28 01:28:15;;;;;;;7.13;1.80;;;;;;;;;;5008952;28;96089;-80
2023/03/28 01:31:03;;;;;;;7.85;1.70;;;;;;;;;;4976713;28;92289;-80
2023/03/28 01:34:03;;;;;;;7.28;1.52;;;;;;;;;;4970059;28;93805;-80
2023/03/28 01:36:31;;;;;;;6.75;1.63;;;;;;;;;;5010340;28;93909;-81
2023/03/28 01:39:09;;;;;;;4.53;1.20;;;;;;;;;;4978751;28;92555;-81
2023/03/28 01:41:52;;;;;;;5.32;1.35;;;;;;;;;;4975669;28;94665;-81
2023/03/28 01:44:31;;;;;;;6.47;1.40;;;;;;;;;;4976613;28;100093;-81
2023/03/28 01:46:57;;;;;;;6.80;1.42;;;;;;;;;;4981467;28;92632;-81
2023/03/28 01:49:25;;;;;;;5.05;1.55;;;;;;;;;;4976988;28;95019;-81
2023/03/28 01:51:51;;;;;;;;;;;;;;;;;;4977050;28;92760;-81
2023/03/28 01:54:18;;;;;;;4.57;1.30;;;;;;;;;;4979833;28;102458;-80
2023/03/28 01:56:44;;;;;;;6.28;1.60;;;;;;;;;;4977891;28;92319;-81
2023/03/28 01:59:18;;;;;;;7.32;1.48;;;;;;;;;;5010813;28;91646;-81
2023/03/28 02:02:16;;;;;;;5.50;1.50;;;;;;;;;;4977401;28;95059;-81
2023/03/28 02:04:45;;;;;;;7.55;1.63;;;;;;;;;;4976768;28;94922;-81
2023/03/28 02:07:12;;;;;;;7.60;1.70;;;;;;;;;;4974696;28;94573;-82
2023/03/28 02:10:00;;;;;;;9.00;1.67;;;;;;;;;;4970147;28;96385;-81
2023/03/28 02:12:49;;;;;;;6.55;1.30;;;;;;;;;;4977105;28;93516;-81
2023/03/28 02:15:35;;;;;;;4.82;1.40;;;;;;;;;;4990209;28;92805;-81
2023/03/28 02:18:40;;;;;;;5.20;1.50;;;;;;;;;;4955335;28;97853;-81
2023/03/28 02:21:47;;;;;;;5.80;1.30;;;;;;;;;;4974941;28;92759;-81
2023/03/28 02:24:28;;;;;;;4.63;1.10;;;;;;;;;;4976040;28;99640;-81
2023/03/28 02:27:09;;;;;;;6.95;1.40;;;;;;;;;;4991873;28;92667;-79
2023/03/28 02:29:48;;;;;;;7.97;1.50;;;;;;;;;;4991061;28;92440;-80
2023/03/28 02:32:32;;;;;;;5.43;1.13;;;;;;;;;;5000941;28;92571;-80
2023/03/28 02:35:01;;;;;;;3.17;1.20;;;;;;;;;;4977611;28;97375;-80
2023/03/28 02:37:53;;;;;;;5.25;1.30;;;;;;;;;;4975912;28;97924;-80
2023/03/28 02:40:35;;;;;;;4.20;1.40;;;;;;;;;;4975876;28;98657;-80
2023/03/28 02:43:11;;;;;;;4.68;1.27;;;;;;;;;;4961748;28;92051;-80
2023/03/28 02:45:47;;;;;;;3.55;1.20;;;;;;;;;;4992658;28;94481;-80
2023/03/28 02:48:13;;;;;;;5.35;1.40;;;;;;;;;;4975978;28;99360;-79
2023/03/28 02:51:05;;;;;;;5.22;1.50;;;;;;;;;;4959260;28;92227;-79
2023/03/28 02:53:43;;;;;;;7.13;1.48;;;;;;;;;;4951144;28;92922;-79
2023/03/28 02:56:10;;;;;;;6.50;1.55;;;;;;;;;;4958588;28;94700;-80
2023/03/28 02:59:03;;;;;;;5.72;1.15;;;;;;;;;;4948824;28;92518;-80
2023/03/28 03:01:29;;;;;;;6.07;1.60;;;;;;;;;;4957437;28;97205;-80
2023/03/28 03:03:56;;;;;;;5.88;1.30;;;;;;;;;;4960468;28;92127;-80
2023/03/28 03:06:24;;;;;;;5.32;1.40;;;;;;;;;;4959269;28;94784;-80
2023/03/28 03:08:50;;;;;;;3.15;1.30;;;;;;;;;;4958510;28;95367;-80
2023/03/28 03:11:16;;;;;;;3.50;1.27;;;;;;;;;;4958318;28;92507;-80
2023/03/28 03:13:45;;;;;;;4.68;1.25;;;;;;;;;;4985698;28;94540;-81
2023/03/28 03:16:12;;;;;;;5.60;1.40;;;;;;;;;;4960241;28;97386;-81
2023/03/28 03:18:38;;;;;;;6.13;1.30;;;;;;;;;;4979171;28;91638;-80
2023/03/28 03:21:05;;;;;;;5.07;1.50;;;;;;;;;;4960585;28;92869;-79
2023/03/28 03:23:35;;;;;;;6.90;1.60;;;;;;;;;;4959222;28;92332;-80
2023/03/28 03:26:02;;;;;;;6.90;1.60;;;;;;;;;;4956915;28;95599;-80
2023/03/28 03:28:34;;;;;;;3.97;1.58;;;;;;;;;;4976143;28;95261;-80
2023/03/28 03:31:02;;;;;;;3.60;1.20;;;;;;;;;;4959409;28;92286;-80
2023/03/28 03:33:53;;;;;;;8.90;1.52;;;;;;;;;;4951779;28;93455;-79
2023/03/28 03:36:25;;;;;;;8.73;1.70;;;;;;;;;;4992224;28;94918;-80
2023/03/28 03:38:52;;;;;;;4.82;1.63;;;;;;;;;;4975740;28;92328;-80
2023/03/28 03:41:21;;;;;;;5.93;1.73;;;;;;;;;;4955681;28;95292;-82
2023/03/28 03:43:47;;;;;;;5.88;1.20;;;;;;;;;;4992396;28;91564;-81
2023/03/28 03:46:13;;;;;;;4.50;1.38;;;;;;;;;;4959804;28;94587;-81
2023/03/28 03:48:40;;;;;;;4.82;1.35;;;;;;;;;;4961006;28;92800;-81
2023/03/28 03:51:15;;;;;;;5.82;1.50;;;;;;;;;;4956404;28;97502;-80
2023/03/28 03:53:42;;;;;;;7.28;1.98;;;;;;;;;;4989866;28;97811;-80
2023/03/28 03:56:12;;;;;;;7.05;1.40;;;;;;;;;;4975636;28;99946;-81
2023/03/28 03:58:52;;;;;;;8.57;1.58;;;;;;;;;;4975795;28;92646;-80
2023/03/28 04:01:21;;;;;;;3.67;1.30;;;;;;;;;;4959246;28;95031;-80
2023/03/28 04:03:47;;;;;;;5.03;1.40;;;;;;;;;;4961697;28;95667;-80
2023/03/28 04:06:22;;;;;;;5.95;1.77;;;;;;;;;;4975650;28;94979;-80
2023/03/28 04:08:48;;;;;;;5.90;1.38;;;;;;;;;;4991618;28;94584;-82
2023/03/28 04:11:24;;;;;;;4.15;1.50;;;;;;;;;;4975357;28;92433;-82
2023/03/28 04:13:51;;;;;;;4.32;1.50;;;;;;;;;;4958478;28;95398;-82
2023/03/28 04:16:19;;;;;;;4.97;1.58;;;;;;;;;;4957152;28;95463;-83
2023/03/28 04:18:55;;;;;;;4.97;1.45;;;;;;;;;;4958548;28;92575;-82
2023/03/28 04:21:26;;;;;;;6.13;1.48;;;;;;;;;;4957515;28;95014;-82
2023/03/28 04:23:54;;;;;;;4.25;1.50;;;;;;;;;;4947565;28;95194;-83
2023/03/28 04:26:28;;;;;;;5.55;1.40;;;;;;;;;;4961967;28;92773;-83
2023/03/28 04:29:04;;;;;;;5.18;1.48;;;;;;;;;;4958727;28;95019;-80
2023/03/28 04:31:37;;;;;;;5.53;1.35;;;;;;;;;;4975521;28;92349;-80
2023/03/28 04:34:32;;;;;;;4.68;1.38;;;;;;;;;;4942531;28;96904;-80
2023/03/28 04:37:07;;;;;;;5.22;1.38;;;;;;;;;;4958287;28;95617;-79
2023/03/28 04:39:46;;;;;;;6.85;1.77;;;;;;;;;;4958709;28;92776;-80
2023/03/28 04:42:24;;;;;;;6.93;1.88;;;;;;;;;;4971206;28;96410;-79
2023/03/28 04:45:03;;;;;;;4.78;1.80;;;;;;;;;;4974136;28;94834;-80
2023/03/28 04:47:30;;;;;;;5.78;1.35;;;;;;;;;;4990858;28;92257;-79
2023/03/28 04:49:57;;;;;;;4.50;1.20;;;;;;;;;;4976506;28;93533;-79
2023/03/28 04:52:28;;;;;;;5.63;1.50;;;;;;;;;;4944527;28;92475;-80
2023/03/28 04:54:55;;;;;;;5.70;1.40;;;;;;;;;;4957939;28;92265;-80
2023/03/28 04:57:23;;;;;;;4.72;1.45;;;;;;;;;;4958038;28;94913;-79
2023/03/28 04:59:54;;;;;;;4.78;1.50;;;;;;;;;;4957470;28;91791;-80
2023/03/28 05:02:41;;;;;;;5.43;1.50;;;;;;;;;;4959350;28;92967;-80
2023/03/28 05:05:11;;;;;;;5.32;1.73;;;;;;;;;;4956331;28;95137;-79
2023/03/28 05:07:37;;;;;;;5.00;1.30;;;;;;;;;;4972589;28;94788;-79
2023/03/28 05:10:05;;;;;;;5.68;1.42;;;;;;;;;;4959700;28;96174;-79
2023/03/28 05:12:36;;;;;;;7.25;1.58;;;;;;;;;;4942740;28;92338;-79
2023/03/28 05:15:04;;;;;;;9.43;1.58;;;;;;;;;;4958234;28;95015;-78
2023/03/28 05:17:35;;;;;;;5.47;1.63;;;;;;;;;;4957086;28;93377;-78
2023/03/28 05:20:08;;;;;;;4.93;1.50;;;;;;;;;;4990666;28;92490;-78
2023/03/28 05:22:44;;;;;;;6.28;1.40;;;;;;;;;;4974493;28;94353;-78
2023/03/28 05:25:10;;;;;;;5.97;1.80;;;;;;;;;;4973983;28;93702;-78
2023/03/28 05:27:38;;;;;;;6.30;1.60;;;;;;;;;;4959977;28;91993;-77
2023/03/28 05:30:05;;;;;;;5.75;1.42;;;;;;;;;;4956315;28;92620;-78
2023/03/28 05:32:32;;;;;;;5.57;1.50;;;;;;;;;;4988422;28;97349;-79
2023/03/28 05:35:00;;;;;;;5.35;1.55;;;;;;;;;;4957097;28;97464;-81
2023/03/28 05:37:29;;;;;;;4.72;1.50;;;;;;;;;;4956203;28;93590;-81
2023/03/28 05:39:57;;;;;;;5.70;1.70;;;;;;;;;;4956898;28;92472;-80
2023/03/28 05:42:23;;;;;;;4.82;1.80;;;;;;;;;;4989909;28;95499;-81
2023/03/28 05:44:50;;;;;;;5.95;1.50;;;;;;;;;;4956674;28;95137;-81
2023/03/28 05:47:25;;;;;;;6.30;1.60;;;;;;;;;;4950095;28;92261;-80
2023/03/28 05:49:52;;;;;;;5.45;1.58;;;;;;;;;;4958261;28;92681;-81
2023/03/28 05:52:20;;;;;;;5.15;1.65;;;;;;;;;;4956370;28;95001;-80
2023/03/28 05:54:47;;;;;;;8.77;1.90;;;;;;;;;;4960402;28;92614;-82
2023/03/28 05:57:19;;;;;;;5.88;1.58;;;;;;;;;;4956538;28;95132;-82
2023/03/28 05:59:45;;;;;;;5.93;1.80;;;;;;;;;;4956164;28;92583;-80
2023/03/28 06:02:15;;;;;;;6.43;1.70;;;;;;;;;;4953226;28;98525;-81
2023/03/28 06:04:42;;;;;;;5.00;1.65;;;;;;;;;;4947527;28;93315;-80
2023/03/28 06:07:12;;;;;;;7.45;1.75;;;;;;;;;;4956454;28;92413;-80
2023/03/28 06:09:39;;;;;;;6.28;1.80;;;;;;;;;;4956286;28;94686;-80
2023/03/28 06:12:08;;;;;;;6.22;1.88;;;;;;;;;;4956063;28;94973;-79
2023/03/28 06:14:38;;;;;;;5.63;1.63;;;;;;;;;;4959219;28;91891;-79
2023/03/28 06:17:08;;;;;;;4.97;1.70;;;;;;;;;;4964942;28;93376;-80
2023/03/28 06:19:44;;;;;;;5.75;1.60;;;;;;;;;;4978023;28;92170;-79
2023/03/28 06:22:12;;;;;;;5.85;1.88;;;;;;;;;;4955668;28;98716;-80
2023/03/28 06:24:40;;;;;;;5.65;2.13;;;;;;;;;;4953608;28;93643;-82
2023/03/28 06:27:07;;;;;;;5.20;1.70;;;;;;;;;;4977179;28;92241;-80
2023/03/28 06:29:37;;;;;;;5.50;1.90;;;;;;;;;;4950466;28;94741;-82
2023/03/28 06:32:03;;;;;;;7.35;2.00;;;;;;;;;;4953592;28;95580;-81
2023/03/28 06:34:30;;;;;;;7.32;2.25;;;;;;;;;;4959584;28;92246;-81
2023/03/28 06:37:00;;;;;;;12.77;2.67;;;;;;;;;;4959609;28;95223;-81
2023/03/28 06:39:40;;;;;;;8.48;2.50;;;;;;;;;;4963230;28;94339;-82
2023/03/28 06:42:07;;;;;;;8.45;2.20;;;;;;;;;;4958047;28;94972;-81
2023/03/28 06:44:43;;;;;;;7.53;2.20;;;;;;;;;;4959786;28;94225;-81
2023/03/28 06:47:17;;;;;;;6.88;2.33;;;;;;;;;;4967141;28;94977;-81
2023/03/28 06:49:45;;;;;;;7.78;2.72;;;;;;;;;;4951939;28;96713;-82
2023/03/28 06:52:32;;;;;;;10.32;2.65;;;;;;;;;;4940850;28;97725;-82
2023/03/28 06:55:00;;;;;;;9.55;3.25;;;;;;;;;;4972278;28;92304;-82
2023/03/28 06:57:26;;;;;;;7.78;2.60;;;;;;;;;;4963465;28;93036;-83
2023/03/28 07:00:06;;;;;;;8.48;2.60;;;;;;;;;;4958441;28;94057;-83
2023/03/28 07:02:52;;;;;;;9.30;3.00;;;;;;;;;;4957664;28;92667;-82
2023/03/28 07:05:19;;;;;;;9.85;2.90;;;;;;;;;;4950895;28;93892;-83
2023/03/28 07:07:45;;;;;;;8.52;2.53;;;;;;;;;;4974979;28;92414;-83
2023/03/28 07:10:12;;;;;;;10.43;2.95;;;;;;;;;;4974709;28;97280;-83
2023/03/28 07:12:40;;;;;;;9.18;2.90;;;;;;;;;;5005973;28;97629;-82
2023/03/28 07:15:07;;;;;;;8.80;2.78;;;;;;;;;;4981017;28;92299;-82
2023/03/28 07:17:33;;;;;;;10.48;2.97;;;;;;;;;;4980859;28;94475;-82
2023/03/28 07:20:00;;;;;;;10.80;2.85;;;;;;;;;;4993821;28;95338;-82
2023/03/28 07:22:27;;;;;;;6.82;2.45;;;;;;;;;;4985223;28;93019;-82
2023/03/28 07:24:53;;;;;;;9.25;2.60;;;;;;;;;;5011599;28;92666;-84
2023/03/28 07:27:20;;;;;;;17.85;3.10;;;;;;;;;;4981897;28;92384;-81
2023/03/28 07:29:50;;;;;;;10.82;2.90;;;;;;;;;;4978394;28;94722;-81
2023/03/28 07:32:17;;;;;;;10.38;2.72;;;;;;;;;;4974234;28;95255;-81
2023/03/28 07:34:44;;;;;;;8.93;2.80;;;;;;;;;;4978138;28;92325;-82
2023/03/28 07:37:16;;;;;;;10.82;2.88;;;;;;;;;;4998109;28;94758;-82
2023/03/28 07:39:55;;;;;;;10.18;3.25;;;;;;;;;;4976546;28;92782;-82
2023/03/28 07:42:23;;;;;;;9.43;2.80;;;;;;;;;;5016985;28;92218;-82
2023/03/28 07:44:50;;;;;;;8.25;2.92;;;;;;;;;;4982426;28;92709;-83
2023/03/28 07:47:17;;;;;;;8.68;2.72;;;;;;;;;;4981729;28;92353;-83
2023/03/28 07:49:44;;;;;;;;;;;;;;;;;;4994326;28;95224;-83
2023/03/28 07:52:11;;;;;;;8.85;3.25;;;;;;;;;;4982092;28;93670;-83
2023/03/28 07:54:37;;;;;;;11.30;3.08;;;;;;;;;;4989352;28;91835;-84
2023/03/28 07:57:04;;;;;;;10.75;3.05;;;;;;;;;;4986611;28;94413;-84
2023/03/28 07:59:51;;;;;;;9.82;3.38;;;;;;;;;;4985895;28;93328;-83
2023/03/28 08:02:17;;;;;;;10.98;2.83;;;;;;;;;;4983348;28;94619;-84
2023/03/28 08:04:44;;;;;;;8.48;2.95;;;;;;;;;;4978013;28;98053;-84
2023/03/28 08:07:14;;;;;;;9.85;3.35;;;;;;;;;;5000199;28;92759;-81
2023/03/28 08:09:43;;;;;;;8.27;3.03;;;;;;;;;;4981512;28;94802;-81
2023/03/28 08:12:14;;;;;;;8.38;2.95;;;;;;;;;;4968992;28;98728;-81
2023/03/28 08:14:41;;;;;;;9.35;2.50;;;;;;;;;;4985775;28;92704;-81
2023/03/28 08:17:08;;;;;;;6.60;2.13;;;;;;;;;;4957760;28;94898;-81
2023/03/28 08:19:35;;;;;;;7.78;2.55;;;;;;;;;;4966201;28;92354;-82
2023/03/28 08:22:09;;;;;;;6.05;2.20;;;;;;;;;;4950286;28;92201;-81
2023/03/28 08:24:43;;;;;;;7.15;2.28;;;;;;;;;;4938969;28;94989;-82
2023/03/28 08:27:13;;;;;;;9.07;2.60;;;;;;;;;;4964293;28;97770;-81
2023/03/28 08:29:42;;;;;;;9.05;2.83;;;;;;;;;;4982264;28;92273;-81
2023/03/28 08:32:09;;;;;;;6.53;2.20;;;;;;;;;;4989360;28;92781;-81
2023/03/28 08:34:36;;;;;;;;;;;;;;;;;;4949243;28;93419;-81
2023/03/28 08:37:09;;;;;;;9.10;3.05;;;;;;;;;;4980621;28;94945;-81
2023/03/28 08:39:36;;;;;;;8.35;3.10;;;;;;;;;;4938011;28;95666;-82
2023/03/28 08:42:21;;;;;;;8.10;2.50;;;;;;;;;;4945727;28;92424;-81
2023/03/28 08:45:07;;;;;;;10.77;4.20;;;;;;;;;;4951968;28;93476;-80
2023/03/28 08:47:49;;;;;;;6.38;2.50;;;;;;;;;;4949090;28;94771;-80
2023/03/28 08:50:24;;;;;;;7.18;2.50;;;;;;;;;;4952866;28;93854;-80
2023/03/28 08:52:52;;;;;;;7.85;2.70;;;;;;;;;;4947372;28;94815;-81
2023/03/28 08:55:19;;;;;;;;;;;;;;;;;;4957898;28;92096;-81
2023/03/28 08:57:49;;;;;;;8.40;2.80;;;;;;;;;;4959151;28;93255;-81
2023/03/28 09:00:21;;;;;;;8.13;2.80;;;;;;;;;;4957381;28;93514;-81
2023/03/28 09:02:48;;;;;;;7.35;3.10;;;;;;;;;;4957211;28;92393;-81
2023/03/28 09:05:27;;;;;;;9.90;2.60;;;;;;;;;;4958960;28;92604;-81
2023/03/28 09:08:03;;;;;;;7.53;2.72;;;;;;;;;;4956137;28;95553;-81
2023/03/28 09:10:35;;;;;;;8.20;2.60;;;;;;;;;;4990375;28;91806;-81
2023/03/28 09:13:07;;;;;;;8.05;3.08;;;;;;;;;;4958081;28;93905;-81
2023/03/28 09:15:42;;;;;;;6.70;2.65;;;;;;;;;;4960020;28;92714;-81
2023/03/28 09:18:15;;;;;;;4.85;2.05;;;;;;;;;;4946182;28;95151;-81
2023/03/28 09:20:50;;;;;;;6.75;2.22;;;;;;;;;;4957433;28;95275;-80
2023/03/28 09:23:29;;;;;;;7.50;2.03;;;;;;;;;;4954261;28;92891;-80
2023/03/28 09:26:16;;;;;;;6.10;2.05;;;;;;;;;;4956141;28;96475;-81
2023/03/28 09:28:50;;;;;;;7.18;2.10;;;;;;;;;;4973016;28;95957;-81
2023/03/28 09:31:17;;;;;;;5.65;1.98;;;;;;;;;;4957745;28;92131;-80
2023/03/28 09:33:45;;;;;;;6.72;2.40;;;;;;;;;;4958516;28;93116;-80
2023/03/28 09:36:26;;;;;;;7.07;2.85;;;;;;;;;;4976485;28;97139;-80
2023/03/28 09:39:05;;;;;;;5.78;2.42;;;;;;;;;;4946550;28;94324;-80
2023/03/28 09:41:54;;;;;;;7.80;2.20;;;;;;;;;;4964208;28;93901;-80
2023/03/28 09:44:41;;;;;;;7.60;2.40;;;;;;;;;;4961507;28;95070;-80
2023/03/28 09:47:45;;;;;;;5.47;2.20;;;;;;;;;;4943465;28;94478;-81
2023/03/28 09:50:15;;;;;;;7.35;2.20;;;;;;;;;;4983952;28;99106;-80
2023/03/28 09:52:47;;;;;;;7.88;2.25;;;;;;;;;;4951150;28;93508;-79
2023/03/28 09:55:24;;;;;;;7.05;2.60;;;;;;;;;;4943157;28;92604;-80
2023/03/28 09:57:58;;;;;;;7.60;2.30;;;;;;;;;;4950011;28;93293;-79
2023/03/28 10:00:24;;;;;;;5.95;2.03;;;;;;;;;;4984729;28;92473;-79
2023/03/28 10:03:28;;;;;;;7.13;2.13;;;;;;;;;;4961591;28;92990;-79
2023/03/28 10:05:55;;;;;;;7.47;2.30;;;;;;;;;;4958388;28;92887;-79
2023/03/28 10:08:35;;;;;;;5.20;2.08;;;;;;;;;;4960944;28;95028;-80
2023/03/28 10:11:26;;;;;;;7.80;2.30;;;;;;;;;;4958486;28;98148;-79
2023/03/28 10:13:54;;;;;;;5.97;2.22;;;;;;;;;;4955208;28;92756;-79
2023/03/28 10:16:21;;;;;;;7.15;2.28;;;;;;;;;;4976398;28;94985;-80
2023/03/28 10:18:56;;;;;;;5.47;1.90;;;;;;;;;;4976753;28;94943;-80
2023/03/28 10:21:32;;;;;;;5.72;2.05;;;;;;;;;;4959782;28;92401;-79
2023/03/28 10:24:14;;;;;;;8.52;1.95;;;;;;;;;;4962022;28;95285;-78
2023/03/28 10:26:47;;;;;;;5.80;2.03;;;;;;;;;;4983254;28;92454;-78
2023/03/28 10:29:14;;;;;;;5.28;1.70;;;;;;;;;;4986033;28;95148;-79
2023/03/28 10:31:45;;;;;;;6.00;1.77;;;;;;;;;;4992755;28;95289;-77
2023/03/28 10:34:26;;;;;;;5.68;1.95;;;;;;;;;;4984693;28;92079;-79
2023/03/28 10:37:27;;;;;;;6.65;1.63;;;;;;;;;;4958301;28;95294;-78
2023/03/28 10:40:19;;;;;;;4.75;1.30;;;;;;;;;;4972628;28;96815;-79
2023/03/28 10:43:09;;;;;;;6.30;1.90;;;;;;;;;;4959587;28;92379;-78
2023/03/28 10:45:49;;;;;;;4.38;1.40;;;;;;;;;;4959537;28;92688;-79
2023/03/28 10:48:27;;;;;;;5.65;1.63;;;;;;;;;;4961422;28;99330;-79
2023/03/28 10:50:56;;;;;;;6.10;1.55;;;;;;;;;;4959937;28;96139;-79
2023/03/28 10:53:31;;;;;;;5.50;1.40;;;;;;;;;;4958801;28;95269;-78
2023/03/28 10:55:58;;;;;;;5.78;1.50;;;;;;;;;;4972315;28;91763;-79
2023/03/28 10:58:45;;;;;;;6.45;2.20;;;;;;;;;;4959439;28;94078;-79
2023/03/28 11:01:20;;;;;;;5.65;1.67;;;;;;;;;;4958415;28;95530;-79
2023/03/28 11:04:11;;;;;;;4.28;1.50;;;;;;;;;;4973343;28;94648;-79
2023/03/28 11:06:44;;;;;;;4.68;1.60;;;;;;;;;;4960354;28;93971;-79
2023/03/28 11:09:21;;;;;;;5.18;1.50;;;;;;;;;;4955988;28;93975;-79
2023/03/28 11:12:13;;;;;;;5.13;1.63;;;;;;;;;;4969986;28;92351;-79
2023/03/28 11:15:05;;;;;;;6.63;1.60;;;;;;;;;;5011864;28;95295;-78
2023/03/28 11:18:01;;;;;;;4.75;1.60;;;;;;;;;;4979054;28;94138;-79
2023/03/28 11:20:48;;;;;;;5.47;1.77;;;;;;;;;;4965209;28;96788;-79
2023/03/28 11:23:18;;;;;;;6.25;1.73;;;;;;;;;;4981203;28;92018;-78
2023/03/28 11:26:08;;;;;;;6.25;1.70;;;;;;;;;;4997089;28;92664;-79
2023/03/28 11:29:03;;;;;;;6.07;2.03;;;;;;;;;;4968283;28;93627;-79
2023/03/28 11:31:52;;;;;;;9.20;3.00;;;;;;;;;;4977579;28;97594;-79
2023/03/28 11:34:23;;;;;;;6.30;2.22;;;;;;;;;;4972493;28;93573;-78
2023/03/28 11:36:52;;;;;;;4.95;2.20;;;;;;;;;;4974197;28;94775;-78
2023/03/28 11:39:30;;;;;;;6.75;2.30;;;;;;;;;;4996472;28;92329;-78
2023/03/28 11:41:59;;;;;;;6.47;2.15;;;;;;;;;;5006841;28;94557;-79
2023/03/28 11:44:43;;;;;;;8.32;2.00;;;;;;;;;;4974652;28;95310;-79
2023/03/28 11:47:13;;;;;;;7.55;2.47;;;;;;;;;;5001035;28;92764;-78
2023/03/28 11:49:44;;;;;;;7.40;2.40;;;;;;;;;;4959419;28;95665;-78
2023/03/28 11:52:39;;;;;;;7.30;2.28;;;;;;;;;;4949614;28;92769;-78
2023/03/28 11:55:30;;;;;;;6.53;2.35;;;;;;;;;;4958863;28;92663;-78
2023/03/28 11:58:10;;;;;;;8.63;2.10;;;;;;;;;;4984369;28;94804;-77
2023/03/28 12:00:36;;;;;;;8.20;2.40;;;;;;;;;;4972816;28;92647;-78
2023/03/28 12:03:33;;;;;;;5.38;1.90;;;;;;;;;;4975701;28;95021;-78
2023/03/28 12:06:02;;;;;;;9.13;2.75;;;;;;;;;;4973374;28;93434;-78
2023/03/28 12:08:48;;;;;;;7.03;2.00;;;;;;;;;;4993961;28;92435;-79
2023/03/28 12:11:22;;;;;;;7.43;2.10;;;;;;;;;;4981345;28;92694;-78
2023/03/28 12:14:19;;;;;;;6.88;2.15;;;;;;;;;;4978344;28;93815;-78
2023/03/28 12:16:50;;;;;;;9.20;3.17;;;;;;;;;;4972663;28;91515;-78
2023/03/28 12:19:29;;;;;;;7.43;2.10;;;;;;;;;;4978773;28;94422;-77
2023/03/28 12:22:11;;;;;;;6.72;1.90;;;;;;;;;;4981155;28;95661;-77
2023/03/28 12:24:49;;;;;;;5.78;1.73;;;;;;;;;;4975912;28;95106;-78
2023/03/28 12:27:41;;;;;;;3.13;1.20;;;;;;;;;;4965628;28;95502;-81
2023/03/28 12:30:21;;;;;;;5.22;1.60;;;;;;;;;;4976016;28;92670;-80
2023/03/28 12:32:50;;;;;;;5.35;1.50;;;;;;;;;;4974078;28;99456;-80
2023/03/28 12:35:28;;;;;;;7.32;1.40;;;;;;;;;;4970941;28;95674;-80
2023/03/28 12:38:08;;;;;;;7.20;1.55;;;;;;;;;;5009036;28;92154;-81
2023/03/28 12:40:35;;;;;;;9.80;1.70;;;;;;;;;;5003478;28;94946;-82
2023/03/28 12:43:02;;;;;;;7.25;1.50;;;;;;;;;;4978855;28;94685;-81
2023/03/28 12:45:31;;;;;;;6.15;1.45;;;;;;;;;;4984649;28;92259;-82
2023/03/28 12:48:01;;;;;;;6.72;1.40;;;;;;;;;;4980396;28;94977;-82
2023/03/28 12:50:44;;;;;;;5.25;1.40;;;;;;;;;;4982020;28;95755;-80
2023/03/28 12:53:12;;;;;;;5.30;1.35;;;;;;;;;;4976520;28;96917;-81
2023/03/28 12:55:44;;;;;;;5.45;1.60;;;;;;;;;;4992312;28;95422;-80
2023/03/28 12:58:30;;;;;;;5.05;1.50;;;;;;;;;;4970051;28;92959;-80
2023/03/28 13:01:30;;;;;;;6.10;1.38;;;;;;;;;;5007815;28;99561;-80
2023/03/28 13:04:31;;;;;;;7.60;1.50;;;;;;;;;;4985757;28;93425;-79
2023/03/28 13:07:25;;;;;;;4.13;1.38;;;;;;;;;;4973564;28;93332;-79
2023/03/28 13:10:01;;;;;;;4.80;1.30;;;;;;;;;;4971891;28;94178;-80
2023/03/28 13:12:33;;;;;;;5.25;1.25;;;;;;;;;;4971905;28;92414;-81
2023/03/28 13:15:01;;;;;;;5.57;1.50;;;;;;;;;;4978648;28;92198;-80
2023/03/28 13:17:30;;;;;;;5.70;1.45;;;;;;;;;;4975546;28;95032;-81
2023/03/28 13:20:09;;;;;;;3.55;1.30;;;;;;;;;;4978297;28;92356;-80
2023/03/28 13:22:41;;;;;;;4.80;1.10;;;;;;;;;;4975834;28;95475;-80
2023/03/28 13:25:24;;;;;;;3.75;1.20;;;;;;;;;;4978653;28;93276;-80
2023/03/28 13:27:53;;;;;;;5.97;1.52;;;;;;;;;;4978460;28;92389;-80
2023/03/28 13:30:26;;;;;;;43.10;21.05;;;;;;;;;;4976784;28;92774;-80
2023/03/28 13:32:56;;;;;;;93.22;43.08;;;;;;;;;;4980591;28;93020;-79
2023/03/28 13:35:35;;;;;;;101.45;45.33;;;;;;;;;;4977811;28;92612;-80
2023/03/28 13:38:21;;;;;;;83.53;39.13;;;;;;;;;;4976207;28;93224;-80
2023/03/28 13:40:55;;;;;;;74.53;33.35;;;;;;;;;;4963232;28;93780;-80
2023/03/28 13:43:27;;;;;;;64.82;28.55;;;;;;;;;;4974249;28;95022;-80
2023/03/28 13:46:16;;;;;;;55.67;27.10;;;;;;;;;;4977287;28;92812;-81
2023/03/28 13:48:52;;;;;;;49.00;22.75;;;;;;;;;;4944970;28;94458;-79
2023/03/28 13:51:23;;;;;;;47.15;22.15;;;;;;;;;;4975799;28;92493;-80
2023/03/28 13:53:49;;;;;;;45.65;19.95;;;;;;;;;;4981132;28;94969;-81
2023/03/28 13:56:20;;;;;;;43.22;18.95;;;;;;;;;;4979158;28;92714;-81
2023/03/28 13:58:47;;;;;;;37.60;17.63;;;;;;;;;;4977154;28;93088;-81
2023/03/28 14:01:15;;;;;;;39.05;17.88;;;;;;;;;;4992454;28;91600;-82
2023/03/28 14:03:44;;;;;;;34.53;16.23;;;;;;;;;;4977526;28;93870;-81
2023/03/28 14:06:26;;;;;;;36.55;15.73;;;;;;;;;;4976985;28;96540;-81
2023/03/28 14:08:54;;;;;;;33.80;15.40;;;;;;;;;;4973148;28;96134;-80
2023/03/28 14:11:22;;;;;;;30.33;14.38;;;;;;;;;;4975734;28;97015;-81
2023/03/28 14:13:51;;;;;;;32.03;16.20;;;;;;;;;;4959452;28;94472;-81
2023/03/28 14:16:18;;;;;;;34.30;16.00;;;;;;;;;;4979279;28;99887;-81
2023/03/28 14:18:46;;;;;;;34.45;16.15;;;;;;;;;;4975298;28;94993;-81
2023/03/28 14:21:13;;;;;;;32.42;13.77;;;;;;;;;;4991983;28;92317;-81
2023/03/28 14:23:47;;;;;;;33.75;15.05;;;;;;;;;;4975382;28;92079;-82
2023/03/28 14:26:13;;;;;;;;;;;;;;;;;;4973244;28;94750;-82
2023/03/28 14:28:40;;;;;;;42.60;19.83;;;;;;;;;;4978253;28;108376;-81
2023/03/28 14:31:26;;;;;;;44.50;20.63;;;;;;;;;;4958219;28;95621;-81
2023/03/28 14:33:52;;;;;;;;;;;;;;;;;;4967009;28;95377;-81
2023/03/28 14:36:19;;;;;;;40.72;19.30;;;;;;;;;;4979939;28;119298;-81
2023/03/28 14:38:46;;;;;;;38.35;17.17;;;;;;;;;;4997899;28;95139;-80
2023/03/28 14:41:20;;;;;;;35.70;17.33;;;;;;;;;;4980459;28;92424;-80
2023/03/28 14:43:51;;;;;;;30.92;15.45;;;;;;;;;;4979617;28;92613;-81
2023/03/28 14:46:20;;;;;;;30.13;15.68;;;;;;;;;;4979882;28;92682;-81
2023/03/28 14:48:52;;;;;;;29.92;14.73;;;;;;;;;;4994736;28;92337;-81
2023/03/28 14:51:19;;;;;;;27.35;13.73;;;;;;;;;;4980723;28;92993;-81
2023/03/28 14:53:46;;;;;;;28.85;14.85;;;;;;;;;;4979607;28;92770;-81
2023/03/28 14:56:15;;;;;;;26.77;14.43;;;;;;;;;;4978008;28;92416;-81
2023/03/28 14:58:44;;;;;;;26.85;13.98;;;;;;;;;;4976797;28;94730;-81
2023/03/28 15:01:13;;;;;;;26.70;13.27;;;;;;;;;;4994282;28;94764;-81
2023/03/28 15:03:42;;;;;;;24.33;12.10;;;;;;;;;;4979419;28;93573;-81
2023/03/28 15:06:16;;;;;;;27.88;13.13;;;;;;;;;;4978380;28;94049;-81
2023/03/28 15:08:43;;;;;;;26.13;12.43;;;;;;;;;;4977701;28;93941;-80
2023/03/28 15:11:09;;;;;;;24.23;12.05;;;;;;;;;;4978258;28;92522;-81
2023/03/28 15:13:37;;;;;;;24.10;11.43;;;;;;;;;;4979967;28;93126;-81
2023/03/28 15:16:04;;;;;;;24.55;11.50;;;;;;;;;;4993540;28;91410;-81
2023/03/28 15:18:32;;;;;;;;;;;;;;;;;;4962334;28;92587;-81